5Y4 weather

Lost Creek Airport
Luzerne, Michigan, United States

Public forecast

Using degrees Fahrenheit for public forecast. Weather courtesy of forecast.io.

Closest aviation weather report (METAR) to Lost Creek Airport

Closest report is Grayling Army Air Field, 21.0 nm (38.9 km) W. Retrieved 2019/10/14 03:58 UTC (22 minutes ago):

KGOV 140358Z AUTO 25010G16KT 10SM FEW060 02/02 A2977 RMK AO2 SLP097 T00220016

Closest aviation forecast (TAF) to Lost Creek Airport

Closest forecast is Alpena County Regional Airport, 38.2 nm (70.8 km) NE. Retrieved 2019-10-14 00:34 UTC (4 hours ago):

TAF KAPN 132332Z 1400/1424 23006KT P6SM BKN060 FM141000 24007KT P6SM SCT030 FM141600 26011G20KT P6SM BKN026 FM142200 27009KT P6SM SCT090